Terminal Aerodrome Forecast
Issued by NWS

Home | Current Version | Previous Version | Text Only | Print | Product List | Glossary On
Versions: 1 2 3 4 5 6 7 8 9 10 11 12 13 14 15 16
000
FTUS44 KMAF 011739
TAFFST
TAF
KFST 011739Z 0118/0218 14009KT P6SM FEW150
     FM012100 14013G18KT P6SM SCT040
     FM020600 17012KT P6SM FEW040=

USA.gov is the U.S. government's official web portal to all federal, state and local government web resources and services.